createdAt,value
2023-04-14T00:02:00.782Z,2.90
2023-04-14T00:04:27.783Z,3.05
2023-04-14T00:06:57.181Z,3.10
2023-04-14T00:09:24.313Z,4.10
2023-04-14T00:11:51.624Z,2.92
2023-04-14T00:14:18.314Z,3.13
2023-04-14T00:16:46.411Z,3.08
2023-04-14T00:19:13.126Z,3.00
2023-04-14T00:21:39.961Z,3.33
2023-04-14T00:24:06.679Z,3.20
2023-04-14T00:26:33.432Z,3.13
2023-04-14T00:29:00.326Z,3.60
2023-04-14T00:31:27.336Z,3.13
2023-04-14T00:33:54.012Z,3.25
2023-04-14T00:36:20.710Z,3.30
2023-04-14T00:38:47.381Z,3.08
2023-04-14T00:41:14.072Z,3.65
2023-04-14T00:43:40.853Z,2.88
2023-04-14T00:46:08.013Z,3.08
2023-04-14T00:48:34.755Z,3.47
2023-04-14T00:51:02.144Z,3.63
2023-04-14T00:53:28.786Z,3.80
2023-04-14T00:55:55.690Z,3.67
2023-04-14T00:58:22.488Z,3.42
2023-04-14T01:00:54.005Z,4.28
2023-04-14T01:03:21.185Z,4.65
2023-04-14T01:05:47.986Z,4.75
2023-04-14T01:08:14.672Z,4.20
2023-04-14T01:10:46.352Z,4.72
2023-04-14T01:13:21.227Z,5.00
2023-04-14T01:15:57.924Z,4.97
2023-04-14T01:18:42.881Z,5.05
2023-04-14T01:21:18.802Z,5.28
2023-04-14T01:24:17.722Z,5.13
2023-04-14T01:26:44.428Z,5.60
2023-04-14T01:29:29.777Z,5.28
2023-04-14T01:32:09.836Z,6.03
2023-04-14T01:34:58.473Z,6.10
2023-04-14T01:37:34.136Z,5.68
2023-04-14T01:40:11.459Z,5.60
2023-04-14T01:42:38.512Z,5.50
2023-04-14T01:45:16.564Z,6.53
2023-04-14T01:47:43.264Z,6.30
2023-04-14T01:50:11.079Z,6.82
2023-04-14T01:52:38.165Z,6.35
2023-04-14T01:55:06.764Z,6.97
2023-04-14T01:57:34.155Z,6.72
2023-04-14T02:00:01.151Z,6.80
2023-04-14T02:02:28.130Z,6.70
2023-04-14T02:04:57.513Z,6.07
2023-04-14T02:07:25.128Z,6.47
2023-04-14T02:09:51.850Z,6.25
2023-04-14T02:12:20.045Z,7.43
2023-04-14T02:14:47.120Z,6.13
2023-04-14T02:17:13.805Z,7.60
2023-04-14T02:19:41.367Z,6.85
2023-04-14T02:22:08.017Z,6.53
2023-04-14T02:24:34.747Z,6.97
2023-04-14T02:27:27.521Z,6.60
2023-04-14T02:29:54.238Z,6.25
2023-04-14T02:32:30.409Z,6.70
2023-04-14T02:35:18.992Z,6.90
2023-04-14T02:37:49.409Z,7.18
2023-04-14T02:40:20.739Z,7.88
2023-04-14T02:42:50.261Z,8.05
2023-04-14T02:45:21.735Z,8.02
2023-04-14T02:47:53.708Z,8.50
2023-04-14T02:50:20.680Z,8.13
2023-04-14T02:52:51.474Z,7.90
2023-04-14T02:55:20.217Z,6.90
2023-04-14T02:57:47.474Z,7.05
2023-04-14T03:00:14.560Z,7.25
2023-04-14T03:02:41.263Z,7.35
2023-04-14T03:05:08.545Z,8.40
2023-04-14T03:07:35.347Z,8.40
2023-04-14T03:10:02.060Z,7.95
2023-04-14T03:12:28.761Z,7.13
2023-04-14T03:14:55.457Z,7.70
2023-04-14T03:17:22.301Z,8.05
2023-04-14T03:19:49.763Z,8.68
2023-04-14T03:22:19.782Z,7.82
2023-04-14T03:24:46.676Z,8.60
2023-04-14T03:27:22.962Z,8.13
2023-04-14T03:29:52.170Z,8.85
2023-04-14T03:32:19.660Z,8.63
2023-04-14T03:34:49.013Z,7.35
2023-04-14T03:37:18.910Z,8.60
2023-04-14T03:39:46.037Z,8.23
2023-04-14T03:42:12.904Z,7.80
2023-04-14T03:44:43.145Z,7.68
2023-04-14T03:47:10.721Z,7.55
2023-04-14T03:49:38.763Z,8.98
2023-04-14T03:52:11.036Z,8.10
2023-04-14T03:54:38.872Z,8.57
2023-04-14T03:57:06.556Z,8.65
2023-04-14T03:59:34.337Z,8.57
2023-04-14T04:02:03.114Z,9.82
2023-04-14T04:04:30.888Z,8.38
2023-04-14T04:06:58.700Z,10.30
2023-04-14T04:09:25.730Z,14.02
2023-04-14T04:11:57.230Z,15.75
2023-04-14T04:14:24.066Z,14.50
2023-04-14T04:16:51.349Z,13.52
2023-04-14T04:19:22.246Z,9.95
2023-04-14T04:21:51.528Z,9.00
2023-04-14T04:24:20.393Z,10.57
2023-04-14T04:26:47.064Z,9.20
2023-04-14T04:29:13.776Z,9.73
2023-04-14T04:31:40.576Z,9.68
2023-04-14T04:34:08.857Z,9.52
2023-04-14T04:36:35.951Z,9.13
2023-04-14T04:39:03.314Z,8.90
2023-04-14T04:41:30.794Z,8.98
2023-04-14T04:43:59.154Z,9.35
2023-04-14T04:46:44.588Z,8.23
2023-04-14T04:49:11.375Z,8.35
2023-04-14T04:51:38.412Z,7.80
2023-04-14T04:54:06.629Z,7.32
2023-04-14T04:56:33.720Z,8.15
2023-04-14T04:59:00.532Z,7.57
2023-04-14T05:01:27.591Z,7.80
2023-04-14T05:03:54.686Z,7.85
2023-04-14T05:06:21.883Z,7.20
2023-04-14T05:08:48.598Z,7.30
2023-04-14T05:11:15.626Z,7.85
2023-04-14T05:13:42.350Z,7.38
2023-04-14T05:16:10.147Z,6.53
2023-04-14T05:18:37.180Z,6.95
2023-04-14T05:21:05.299Z,7.30
2023-04-14T05:23:36.560Z,6.45
2023-04-14T05:26:27.118Z,6.68
2023-04-14T05:28:51.227Z,6.25
2023-04-14T05:31:18.066Z,6.50
2023-04-14T05:33:44.819Z,6.80
2023-04-14T05:36:11.625Z,6.32
2023-04-14T05:38:41.033Z,7.05
2023-04-14T05:41:07.867Z,6.55
2023-04-14T05:43:34.614Z,7.60
2023-04-14T05:46:01.799Z,6.93
2023-04-14T05:48:30.774Z,6.78
2023-04-14T05:50:58.316Z,6.18
2023-04-14T05:53:25.322Z,7.00
2023-04-14T05:55:52.642Z,6.40
2023-04-14T05:58:19.950Z,7.97
2023-04-14T06:00:47.151Z,6.25
2023-04-14T06:03:15.365Z,6.35
2023-04-14T06:05:42.403Z,6.15
2023-04-14T06:08:09.160Z,5.60
2023-04-14T06:10:35.969Z,7.15
2023-04-14T06:13:02.650Z,10.15
2023-04-14T06:15:29.892Z,9.70
2023-04-14T06:17:56.662Z,9.25
2023-04-14T06:20:23.432Z,8.45
2023-04-14T06:22:50.094Z,5.72
2023-04-14T06:25:16.904Z,3.47
2023-04-14T06:27:43.679Z,3.28
2023-04-14T06:30:10.758Z,3.00
2023-04-14T06:32:37.490Z,3.40
2023-04-14T06:35:05.182Z,8.77
2023-04-14T06:37:32.407Z,7.75
2023-04-14T06:39:59.195Z,7.55
2023-04-14T06:42:25.927Z,4.45
2023-04-14T06:44:52.572Z,3.60
2023-04-14T06:47:21.081Z,2.85
2023-04-14T06:49:47.946Z,2.13
2023-04-14T06:52:14.634Z,2.78
2023-04-14T06:54:42.357Z,2.95
2023-04-14T06:57:09.401Z,2.97
2023-04-14T06:59:36.778Z,2.38
2023-04-14T07:02:03.631Z,2.58
2023-04-14T07:04:30.725Z,2.25
2023-04-14T07:07:03.148Z,2.55
2023-04-14T07:09:29.881Z,2.95
2023-04-14T07:11:57.596Z,2.20
2023-04-14T07:14:24.796Z,3.17
2023-04-14T07:16:52.354Z,2.38
2023-04-14T07:19:19.542Z,2.22
2023-04-14T07:21:46.754Z,2.15
2023-04-14T07:24:15.336Z,2.58
2023-04-14T07:26:43.672Z,2.63
2023-04-14T07:29:10.464Z,2.67
2023-04-14T07:31:38.172Z,4.25
2023-04-14T07:34:05.229Z,4.72
2023-04-14T07:36:32.880Z,2.75
2023-04-14T07:38:59.730Z,3.13
2023-04-14T07:41:28.221Z,3.00
2023-04-14T07:43:55.837Z,2.42
2023-04-14T07:46:22.649Z,1.83
2023-04-14T07:48:49.606Z,2.63
2023-04-14T07:51:16.763Z,2.20
2023-04-14T07:53:45.143Z,1.80
2023-04-14T07:56:12.519Z,2.08
2023-04-14T07:58:39.233Z,1.90
2023-04-14T08:01:06.538Z,1.77
2023-04-14T08:03:33.888Z,1.77
2023-04-14T08:06:07.593Z,2.28
2023-04-14T08:08:35.400Z,1.92
2023-04-14T08:11:02.114Z,1.38
2023-04-14T08:13:28.932Z,1.42
2023-04-14T08:15:55.820Z,1.40
2023-04-14T08:18:22.776Z,1.52
2023-04-14T08:20:49.961Z,4.55
2023-04-14T08:23:17.243Z,3.95
2023-04-14T08:25:44.535Z,5.03
2023-04-14T08:28:11.455Z,3.17
2023-04-14T08:30:38.284Z,2.20
2023-04-14T08:33:05.052Z,1.77
2023-04-14T08:35:36.048Z,1.98
2023-04-14T08:38:08.285Z,1.50
2023-04-14T08:40:42.682Z,1.92
2023-04-14T08:43:11.754Z,1.50
2023-04-14T08:45:40.797Z,2.28
2023-04-14T08:48:07.508Z,1.88
2023-04-14T08:50:38.048Z,1.55
2023-04-14T08:53:06.838Z,1.40
2023-04-14T08:55:33.552Z,1.95
2023-04-14T08:58:02.059Z,1.60
2023-04-14T09:00:28.836Z,2.00
2023-04-14T09:02:55.697Z,1.55
2023-04-14T09:05:22.407Z,1.60
2023-04-14T09:07:49.183Z,1.50
2023-04-14T09:10:15.839Z,1.70
2023-04-14T09:12:42.501Z,1.45
2023-04-14T09:15:09.843Z,2.15
2023-04-14T09:17:36.912Z,1.67
2023-04-14T09:20:35.807Z,2.20
2023-04-14T09:22:51.087Z,2.75
2023-04-14T09:25:17.790Z,1.40
2023-04-14T09:27:44.442Z,1.40
2023-04-14T09:30:11.497Z,1.67
2023-04-14T09:32:38.630Z,1.90
2023-04-14T09:35:06.439Z,2.15
2023-04-14T09:37:49.686Z,1.42
2023-04-14T09:42:56.793Z,1.90
2023-04-14T09:45:31.294Z,2.55
2023-04-14T09:48:07.708Z,1.50
2023-04-14T09:51:03.494Z,1.80
2023-04-14T09:53:35.757Z,2.00
2023-04-14T09:56:06.020Z,1.80
2023-04-14T09:58:37.222Z,1.60
2023-04-14T10:01:14.593Z,1.63
2023-04-14T10:03:42.756Z,2.30
2023-04-14T10:06:11.540Z,1.88
2023-04-14T10:08:39.414Z,2.00
2023-04-14T10:11:29.726Z,2.75
2023-04-14T10:14:04.589Z,1.65
2023-04-14T10:16:31.727Z,2.03
2023-04-14T10:18:58.767Z,2.13
2023-04-14T10:21:26.208Z,2.00
2023-04-14T10:23:52.941Z,1.75
2023-04-14T10:26:19.853Z,1.70
2023-04-14T10:28:48.461Z,1.77
2023-04-14T10:31:20.356Z,2.45
2023-04-14T10:33:47.212Z,1.90
2023-04-14T10:36:31.995Z,1.83
2023-04-14T10:39:03.616Z,1.67
2023-04-14T10:41:50.179Z,3.10
2023-04-14T10:44:33.891Z,1.85
2023-04-14T10:47:05.381Z,1.83
2023-04-14T10:49:33.179Z,1.65
2023-04-14T10:52:25.246Z,1.70
2023-04-14T10:54:53.453Z,1.80
2023-04-14T10:57:26.825Z,2.03
2023-04-14T11:00:21.109Z,1.17
2023-04-14T11:03:13.113Z,2.10
2023-04-14T11:05:51.530Z,1.58
2023-04-14T11:08:47.393Z,1.92
2023-04-14T11:11:14.084Z,1.30
2023-04-14T11:13:40.825Z,1.65
2023-04-14T11:16:08.130Z,1.27
2023-04-14T11:18:45.345Z,1.60
2023-04-14T11:21:14.486Z,1.45
2023-04-14T11:23:41.648Z,1.50
2023-04-14T11:26:09.999Z,1.40
2023-04-14T11:28:39.013Z,1.40
2023-04-14T11:31:08.590Z,1.55
2023-04-14T11:33:39.998Z,1.50
2023-04-14T11:36:09.721Z,1.10
2023-04-14T11:38:40.329Z,2.00
2023-04-14T11:41:07.600Z,1.05
2023-04-14T11:43:34.651Z,1.70
2023-04-14T11:46:02.214Z,1.30
2023-04-14T11:48:29.876Z,1.23
2023-04-14T11:51:02.664Z,1.40
2023-04-14T11:53:29.648Z,1.67
2023-04-14T11:55:57.692Z,1.50
2023-04-14T11:58:25.655Z,1.85
2023-04-14T12:00:55.104Z,1.35
2023-04-14T12:03:23.528Z,1.50
2023-04-14T12:05:50.429Z,1.33
2023-04-14T12:08:17.522Z,1.50
2023-04-14T12:10:46.103Z,1.42
2023-04-14T12:13:13.155Z,1.23
2023-04-14T12:15:41.087Z,1.30
2023-04-14T12:18:13.930Z,1.20
2023-04-14T12:20:47.031Z,1.65
2023-04-14T12:25:40.587Z,1.05
2023-04-14T12:28:07.423Z,1.35
2023-04-14T12:30:37.837Z,1.45
2023-04-14T12:33:12.227Z,1.17
2023-04-14T12:35:39.494Z,1.00
2023-04-14T12:38:13.210Z,1.73
2023-04-14T12:40:41.297Z,1.95
2023-04-14T12:43:07.931Z,1.45
2023-04-14T12:45:48.586Z,1.42
2023-04-14T12:48:18.399Z,1.50
2023-04-14T12:50:45.180Z,1.42
2023-04-14T12:53:25.167Z,1.38
2023-04-14T12:56:11.688Z,1.10
2023-04-14T12:58:40.096Z,1.40
2023-04-14T13:01:08.483Z,1.10
2023-04-14T13:03:50.636Z,1.65
2023-04-14T13:06:23.179Z,1.88
2023-04-14T13:08:55.878Z,1.50
2023-04-14T13:11:24.228Z,1.75
2023-04-14T13:13:54.270Z,1.42
2023-04-14T13:16:22.543Z,1.27
2023-04-14T13:18:53.019Z,1.20
2023-04-14T13:21:19.867Z,1.45
2023-04-14T13:23:47.464Z,1.23
2023-04-14T13:26:17.309Z,1.40
2023-04-14T13:28:44.899Z,1.67
2023-04-14T13:31:14.644Z,1.00
2023-04-14T13:33:42.635Z,1.17
2023-04-14T13:36:09.708Z,1.20
2023-04-14T13:38:37.220Z,1.13
2023-04-14T13:41:06.472Z,0.80
2023-04-14T13:43:34.155Z,0.80
2023-04-14T13:46:01.305Z,1.00
2023-04-14T13:48:28.166Z,1.33
2023-04-14T13:50:56.030Z,1.00
2023-04-14T13:53:22.898Z,1.40
2023-04-14T13:55:49.647Z,0.80
2023-04-14T13:58:16.514Z,1.00
2023-04-14T14:00:43.387Z,0.93
2023-04-14T14:03:10.505Z,0.93
2023-04-14T14:05:37.568Z,0.77
2023-04-14T14:08:04.359Z,1.00
2023-04-14T14:10:31.307Z,1.33
2023-04-14T14:12:57.974Z,0.70
2023-04-14T14:15:24.834Z,1.02
2023-04-14T14:17:53.445Z,1.20
2023-04-14T14:20:20.406Z,1.08
2023-04-14T14:22:47.457Z,1.13
2023-04-14T14:25:20.312Z,1.48
2023-04-14T14:27:50.310Z,0.90
2023-04-14T14:30:17.152Z,0.88
2023-04-14T14:32:44.239Z,1.10
2023-04-14T14:35:11.184Z,1.10
2023-04-14T14:37:38.725Z,0.90
2023-04-14T14:40:06.656Z,0.93
2023-04-14T14:42:33.663Z,1.00
2023-04-14T14:45:01.362Z,1.02
2023-04-14T14:47:28.794Z,0.82
2023-04-14T14:50:01.665Z,0.80
2023-04-14T14:52:31.857Z,1.33
2023-04-14T14:54:58.917Z,0.90
2023-04-14T14:57:26.362Z,1.20
2023-04-14T14:59:54.015Z,0.90
2023-04-14T15:02:21.817Z,1.10
2023-04-14T15:04:50.288Z,0.98
2023-04-14T15:07:17.508Z,0.93
2023-04-14T15:09:46.774Z,0.88
2023-04-14T15:12:13.514Z,0.90
2023-04-14T15:14:40.285Z,0.90
2023-04-14T15:17:07.294Z,1.02
2023-04-14T15:19:34.184Z,0.85
2023-04-14T15:22:01.637Z,1.30
2023-04-14T15:24:28.484Z,1.02
2023-04-14T15:26:55.335Z,1.30
2023-04-14T15:29:25.051Z,1.20
2023-04-14T15:31:52.019Z,0.90
2023-04-14T15:34:21.589Z,0.90
2023-04-14T15:36:48.503Z,1.55
2023-04-14T15:39:15.430Z,1.08
2023-04-14T15:41:42.120Z,1.00
2023-04-14T15:44:10.329Z,1.23
2023-04-14T15:46:37.437Z,1.00
2023-04-14T15:49:04.900Z,0.98
2023-04-14T15:51:32.313Z,1.00
2023-04-14T15:53:59.729Z,1.17
2023-04-14T15:56:27.497Z,1.15
2023-04-14T15:58:54.963Z,1.13
2023-04-14T16:01:25.948Z,0.88
2023-04-14T16:03:53.398Z,1.27
2023-04-14T16:06:20.619Z,0.90
2023-04-14T16:08:47.765Z,1.13
2023-04-14T16:11:18.038Z,1.02
2023-04-14T16:13:48.462Z,1.55
2023-04-14T16:16:16.289Z,1.27
2023-04-14T16:18:43.288Z,0.85
2023-04-14T16:21:10.268Z,1.00
2023-04-14T16:23:37.384Z,0.80
2023-04-14T16:26:04.519Z,1.17
2023-04-14T16:28:31.711Z,0.98
2023-04-14T16:31:03.158Z,1.00
2023-04-14T16:33:31.933Z,1.27
2023-04-14T16:36:07.918Z,1.27
2023-04-14T16:38:34.933Z,1.00
2023-04-14T16:41:02.442Z,0.98
2023-04-14T16:43:29.610Z,0.90
2023-04-14T16:46:03.946Z,1.13
2023-04-14T16:48:31.514Z,0.80
2023-04-14T16:51:04.799Z,0.95
2023-04-14T16:53:32.049Z,0.77
2023-04-14T16:56:09.347Z,0.65
2023-04-14T16:58:38.284Z,1.10
2023-04-14T17:01:06.495Z,1.38
2023-04-14T17:03:34.651Z,0.80
2023-04-14T17:06:01.858Z,0.90
2023-04-14T17:08:29.150Z,1.02
2023-04-14T17:10:56.247Z,0.80
2023-04-14T17:13:23.611Z,1.13
2023-04-14T17:15:58.870Z,0.73
2023-04-14T17:18:35.621Z,0.75
2023-04-14T17:21:03.119Z,1.08
2023-04-14T17:23:30.619Z,0.85
2023-04-14T17:25:57.939Z,0.82
2023-04-14T17:28:27.257Z,0.60
2023-04-14T17:30:54.561Z,0.52
2023-04-14T17:33:22.408Z,0.90
2023-04-14T17:35:49.534Z,0.70
2023-04-14T17:38:17.015Z,0.77
2023-04-14T17:40:44.244Z,0.60
2023-04-14T17:43:11.152Z,1.10
2023-04-14T17:45:40.348Z,1.23
2023-04-14T17:48:11.200Z,0.88
2023-04-14T17:50:38.402Z,0.88
2023-04-14T17:53:05.547Z,1.00
2023-04-14T17:55:35.914Z,0.95
2023-04-14T17:58:03.928Z,0.98
2023-04-14T18:00:31.324Z,1.02
2023-04-14T18:02:58.599Z,1.00
2023-04-14T18:05:25.731Z,1.35
2023-04-14T18:07:53.398Z,0.90
2023-04-14T18:10:21.898Z,1.27
2023-04-14T18:12:49.618Z,1.00
2023-04-14T18:15:17.653Z,1.05
2023-04-14T18:17:47.209Z,1.20
2023-04-14T18:20:14.831Z,1.50
2023-04-14T18:22:43.398Z,1.20
2023-04-14T18:25:10.665Z,1.00
2023-04-14T18:30:09.230Z,1.50
2023-04-14T18:32:36.689Z,1.20
2023-04-14T18:35:04.138Z,1.30
2023-04-14T18:37:31.397Z,1.13
2023-04-14T18:39:58.648Z,1.33
2023-04-14T18:42:25.740Z,1.30
2023-04-14T18:44:55.308Z,1.80
2023-04-14T18:47:22.480Z,1.80
2023-04-14T18:49:52.403Z,1.65
2023-04-14T18:52:23.084Z,1.67
2023-04-14T18:54:50.670Z,1.90
2023-04-14T18:57:21.953Z,1.80
2023-04-14T18:59:49.751Z,1.80
2023-04-14T19:02:17.169Z,1.50
2023-04-14T19:04:45.038Z,1.67
2023-04-14T19:07:12.413Z,1.60
2023-04-14T19:09:39.579Z,1.42
2023-04-14T19:12:18.455Z,1.80
2023-04-14T19:14:54.486Z,1.70
2023-04-14T19:17:21.717Z,1.48
2023-04-14T19:19:49.411Z,1.60
2023-04-14T19:22:17.422Z,1.85
2023-04-14T19:24:48.391Z,1.42
2023-04-14T19:27:15.552Z,2.00
2023-04-14T19:29:43.359Z,2.13
2023-04-14T19:32:10.651Z,2.35
2023-04-14T19:34:38.032Z,2.17
2023-04-14T19:37:05.253Z,2.13
2023-04-14T19:39:32.445Z,1.40
2023-04-14T19:42:01.873Z,2.28
2023-04-14T19:44:31.058Z,2.13
2023-04-14T19:46:58.426Z,3.47
2023-04-14T19:49:25.560Z,2.53
2023-04-14T19:51:53.372Z,3.25
2023-04-14T19:54:23.603Z,2.13
2023-04-14T19:56:51.248Z,2.08
2023-04-14T19:59:38.878Z,2.10
2023-04-14T20:02:10.790Z,1.90
2023-04-14T20:04:38.433Z,1.92
2023-04-14T20:07:05.846Z,1.85
2023-04-14T20:09:33.156Z,1.77
2023-04-14T20:12:00.932Z,2.00
2023-04-14T20:14:28.337Z,2.90
2023-04-14T20:16:56.742Z,1.83
2023-04-14T20:19:24.799Z,2.47
2023-04-14T20:21:51.961Z,2.00
2023-04-14T20:24:19.164Z,2.20
2023-04-14T20:26:46.879Z,2.05
2023-04-14T20:29:14.435Z,3.40
2023-04-14T20:31:43.042Z,2.03
2023-04-14T20:34:10.774Z,2.53
2023-04-14T20:36:37.964Z,3.83
2023-04-14T20:39:06.129Z,3.35
2023-04-14T20:41:36.753Z,3.45
2023-04-14T20:44:06.673Z,4.72
2023-04-14T20:46:34.222Z,3.85
2023-04-14T20:49:02.951Z,4.68
2023-04-14T20:51:30.337Z,4.30
2023-04-14T20:53:57.585Z,3.95
2023-04-14T20:56:28.271Z,4.20
2023-04-14T20:58:56.388Z,4.00
2023-04-14T21:01:25.791Z,4.20
2023-04-14T21:03:53.228Z,4.22
2023-04-14T21:06:20.636Z,4.45
2023-04-14T21:08:48.040Z,4.70
2023-04-14T21:11:18.541Z,4.60
2023-04-14T21:15:26.763Z,3.95
2023-04-14T21:16:34.587Z,4.88
2023-04-14T21:19:02.889Z,3.90
2023-04-14T21:21:30.176Z,3.97
2023-04-14T21:23:57.362Z,3.47
2023-04-14T21:26:24.286Z,3.70
2023-04-14T21:28:51.596Z,4.30
2023-04-14T21:31:18.749Z,3.90
2023-04-14T21:33:47.150Z,3.97
2023-04-14T21:36:14.764Z,4.05
2023-04-14T21:38:41.833Z,4.65
2023-04-14T21:41:08.724Z,4.60
2023-04-14T21:43:36.161Z,5.47
2023-04-14T21:46:03.537Z,5.95
2023-04-14T21:48:30.240Z,7.03
2023-04-14T21:50:57.104Z,8.10
2023-04-14T21:53:23.768Z,8.25
2023-04-14T21:56:09.148Z,6.53
2023-04-14T21:58:37.319Z,5.50
2023-04-14T22:01:04.569Z,5.60
2023-04-14T22:03:32.707Z,5.60
2023-04-14T22:05:59.999Z,4.90
2023-04-14T22:08:26.727Z,4.50
2023-04-14T22:10:53.417Z,4.97
2023-04-14T22:13:20.152Z,5.65
2023-04-14T22:15:46.899Z,4.97
2023-04-14T22:18:13.552Z,4.10
2023-04-14T22:20:40.187Z,4.72
2023-04-14T22:23:07.394Z,4.03
2023-04-14T22:25:34.825Z,4.40
2023-04-14T22:28:01.848Z,4.40
2023-04-14T22:30:28.577Z,4.63
2023-04-14T22:32:56.071Z,4.13
2023-04-14T22:35:23.089Z,4.50
2023-04-14T22:37:49.836Z,4.75
2023-04-14T22:40:17.081Z,4.25
2023-04-14T22:42:43.699Z,4.20
2023-04-14T22:45:10.579Z,4.00
2023-04-14T22:47:37.351Z,3.92
2023-04-14T22:50:04.341Z,4.28
2023-04-14T22:52:31.137Z,3.85
2023-04-14T22:54:57.794Z,4.20
2023-04-14T22:57:24.656Z,3.88
2023-04-14T22:59:51.975Z,4.82
2023-04-14T23:02:18.843Z,3.85
2023-04-14T23:04:46.342Z,4.07
2023-04-14T23:07:13.648Z,3.42
2023-04-14T23:09:40.373Z,3.65
2023-04-14T23:12:07.248Z,3.97
2023-04-14T23:14:33.973Z,3.90
2023-04-14T23:17:01.021Z,4.18
2023-04-14T23:19:27.787Z,3.85
2023-04-14T23:21:54.510Z,4.43
2023-04-14T23:24:22.488Z,4.20
2023-04-14T23:26:49.191Z,3.72
2023-04-14T23:29:16.133Z,3.50
2023-04-14T23:31:43.076Z,4.35
2023-04-14T23:34:11.093Z,4.38
2023-04-14T23:36:37.846Z,4.00
2023-04-14T23:39:04.868Z,4.32
2023-04-14T23:41:31.669Z,4.30
2023-04-14T23:43:58.415Z,4.47
2023-04-14T23:46:25.073Z,4.07
2023-04-14T23:48:53.353Z,3.92
2023-04-14T23:51:22.453Z,4.10
2023-04-14T23:53:49.509Z,4.68
2023-04-14T23:56:16.506Z,3.40
2023-04-14T23:58:43.321Z,4.20
